In Rescue
 
Open Full Screen Window  High Contrast Mode
July 23, 2019 1:54 AM EDT
Weather Information
Wind Direction
  ---
Wind Speed
  00 kt (0 mph)
Wind Gust
  00 kt (0 mph)
Altimeter
30.03 in
Visibility
10 SM
Temperature
12° C
54° F
Dewpoint
10° C
50° F
Humidity
88%
1hr Rain Fall
00.00 in.
24hr Rain Fall
00.00 in.
Sky Condition
Clear
VFR

METAR KIKW 230554Z AUTO 00000KT 10SM CLR 12/10 A3003 RMK AO2 T01210104 10224 20120 402650120

FAA Disclaimer: The data displayed is for advisory purposes only and is not to be used for flight planning or operations.